createdAt,value
2018-09-15T00:01:51.690Z,65.00
2018-09-15T00:04:21.598Z,65.00
2018-09-15T00:06:51.324Z,65.20
2018-09-15T00:09:21.214Z,65.30
2018-09-15T00:11:51.052Z,65.40
2018-09-15T00:14:20.934Z,66.00
2018-09-15T00:16:50.734Z,66.40
2018-09-15T00:19:20.586Z,66.70
2018-09-15T00:21:50.330Z,67.20
2018-09-15T00:24:20.147Z,67.80
2018-09-15T00:26:50.095Z,68.20
2018-09-15T00:29:19.946Z,68.30
2018-09-15T00:31:49.863Z,68.10
2018-09-15T00:34:19.670Z,68.60
2018-09-15T00:36:49.466Z,69.40
2018-09-15T00:39:19.318Z,69.20
2018-09-15T00:41:49.278Z,69.10
2018-09-15T00:44:19.071Z,69.20
2018-09-15T00:46:48.993Z,69.10
2018-09-15T00:49:18.755Z,69.10
2018-09-15T00:51:48.585Z,68.80
2018-09-15T00:54:18.353Z,69.30
2018-09-15T00:56:48.151Z,69.20
2018-09-15T00:59:18.019Z,69.00
2018-09-15T01:01:47.931Z,69.20
2018-09-15T01:04:17.720Z,69.20
2018-09-15T01:06:47.541Z,69.00
2018-09-15T01:09:17.382Z,68.90
2018-09-15T01:11:47.244Z,68.60
2018-09-15T01:14:17.179Z,68.80
2018-09-15T01:16:46.920Z,68.60
2018-09-15T01:19:16.798Z,68.30
2018-09-15T01:21:46.637Z,68.30
2018-09-15T01:24:16.433Z,68.50
2018-09-15T01:26:46.221Z,68.30
2018-09-15T01:29:16.113Z,68.30
2018-09-15T01:31:46.032Z,68.40
2018-09-15T01:34:15.748Z,68.40
2018-09-15T01:36:45.484Z,68.70
2018-09-15T01:39:15.273Z,68.40
2018-09-15T01:41:45.124Z,68.50
2018-09-15T01:44:14.988Z,68.50
2018-09-15T01:46:44.807Z,68.30
2018-09-15T01:49:14.774Z,68.50
2018-09-15T01:51:44.560Z,68.30
2018-09-15T01:54:14.345Z,68.30
2018-09-15T01:56:44.246Z,68.20
2018-09-15T01:59:14.202Z,68.40
2018-09-15T02:01:44.126Z,68.40
2018-09-15T02:04:13.966Z,68.50
2018-09-15T02:06:43.833Z,68.40
2018-09-15T02:09:14.761Z,68.70
2018-09-15T02:11:45.309Z,68.60
2018-09-15T02:14:15.097Z,69.70
2018-09-15T02:16:44.912Z,69.20
2018-09-15T02:19:14.798Z,69.10
2018-09-15T02:21:44.638Z,69.40
2018-09-15T02:24:14.534Z,69.30
2018-09-15T02:26:44.394Z,69.60
2018-09-15T02:29:14.178Z,69.50
2018-09-15T02:31:44.039Z,69.20
2018-09-15T02:34:13.815Z,69.70
2018-09-15T02:36:43.618Z,70.00
2018-09-15T02:39:13.820Z,69.80
2018-09-15T02:41:43.630Z,70.20
2018-09-15T02:44:13.602Z,70.20
2018-09-15T02:46:43.475Z,70.20
2018-09-15T02:49:13.449Z,70.40
2018-09-15T02:51:43.374Z,70.00
2018-09-15T02:54:13.294Z,70.60
2018-09-15T02:56:43.112Z,71.00
2018-09-15T02:59:12.945Z,70.70
2018-09-15T03:01:42.867Z,70.80
2018-09-15T03:04:12.677Z,71.10
2018-09-15T03:06:42.427Z,71.50
2018-09-15T03:09:13.424Z,71.40
2018-09-15T03:11:43.268Z,71.50
2018-09-15T03:14:13.016Z,71.40
2018-09-15T03:16:42.731Z,71.60
2018-09-15T03:19:12.509Z,71.50
2018-09-15T03:21:42.277Z,71.50
2018-09-15T03:24:12.058Z,71.50
2018-09-15T03:26:41.864Z,71.30
2018-09-15T03:29:11.811Z,71.70
2018-09-15T03:31:41.643Z,71.90
2018-09-15T03:34:11.572Z,71.80
2018-09-15T03:36:41.479Z,71.90
2018-09-15T03:39:12.776Z,72.10
2018-09-15T03:41:43.142Z,72.00
2018-09-15T03:44:12.861Z,72.20
2018-09-15T03:46:42.685Z,72.50
2018-09-15T03:49:12.491Z,72.70
2018-09-15T03:51:42.203Z,73.00
2018-09-15T03:54:17.478Z,74.70
2018-09-15T03:56:47.465Z,73.90
2018-09-15T03:59:17.996Z,74.10
2018-09-15T04:01:48.189Z,74.10
2018-09-15T04:04:18.086Z,74.20
2018-09-15T04:06:48.025Z,74.60
2018-09-15T04:09:17.933Z,74.70
2018-09-15T04:11:47.765Z,74.60
2018-09-15T04:14:17.577Z,74.80
2018-09-15T04:16:47.554Z,75.20
2018-09-15T04:19:17.313Z,75.30
2018-09-15T04:21:47.145Z,75.70
2018-09-15T04:24:17.002Z,76.70
2018-09-15T04:26:46.913Z,76.60
2018-09-15T04:29:16.688Z,76.70
2018-09-15T04:31:46.389Z,76.60
2018-09-15T04:34:16.224Z,76.60
2018-09-15T04:36:46.026Z,76.60
2018-09-15T04:39:15.843Z,77.40
2018-09-15T04:41:45.748Z,77.10
2018-09-15T04:44:15.429Z,77.20
2018-09-15T04:46:45.279Z,77.50
2018-09-15T04:49:15.114Z,78.50
2018-09-15T04:51:45.095Z,78.50
2018-09-15T04:54:14.808Z,79.20
2018-09-15T04:56:44.749Z,79.10
2018-09-15T04:59:14.671Z,78.80
2018-09-15T05:01:44.483Z,79.10
2018-09-15T05:04:14.226Z,78.90
2018-09-15T05:06:44.130Z,79.20
2018-09-15T05:09:14.426Z,79.10
2018-09-15T05:11:44.319Z,79.20
2018-09-15T05:14:14.182Z,78.90
2018-09-15T05:16:44.010Z,78.90
2018-09-15T05:19:13.912Z,80.50
2018-09-15T05:21:43.770Z,80.20
2018-09-15T05:24:13.516Z,80.50
2018-09-15T05:26:43.309Z,80.30
2018-09-15T05:29:13.146Z,80.40
2018-09-15T05:31:43.066Z,80.10
2018-09-15T05:34:12.938Z,80.40
2018-09-15T05:36:42.794Z,80.40
2018-09-15T05:39:13.939Z,80.30
2018-09-15T05:41:44.195Z,80.10
2018-09-15T05:44:14.031Z,80.10
2018-09-15T05:46:43.820Z,81.20
2018-09-15T05:49:13.778Z,80.30
2018-09-15T05:51:43.640Z,80.70
2018-09-15T05:54:13.446Z,80.70
2018-09-15T05:56:43.290Z,80.70
2018-09-15T05:59:13.232Z,80.60
2018-09-15T06:01:43.180Z,80.60
2018-09-15T06:04:12.936Z,80.90
2018-09-15T06:06:42.765Z,80.70
2018-09-15T06:09:13.490Z,80.80
2018-09-15T06:11:43.432Z,80.70
2018-09-15T06:14:13.305Z,80.60
2018-09-15T06:16:43.101Z,81.30
2018-09-15T06:19:13.001Z,81.30
2018-09-15T06:21:42.821Z,81.80
2018-09-15T06:24:12.845Z,82.00
2018-09-15T06:26:42.797Z,82.20
2018-09-15T06:29:12.725Z,82.00
2018-09-15T06:31:42.637Z,81.60
2018-09-15T06:34:12.495Z,81.50
2018-09-15T06:36:42.337Z,81.10
2018-09-15T06:39:12.612Z,80.80
2018-09-15T06:41:42.403Z,80.60
2018-09-15T06:44:12.235Z,80.50
2018-09-15T06:46:42.093Z,80.40
2018-09-15T06:49:11.935Z,80.20
2018-09-15T06:51:41.827Z,80.00
2018-09-15T06:54:11.785Z,79.80
2018-09-15T06:56:41.739Z,79.70
2018-09-15T06:59:11.678Z,79.70
2018-09-15T07:01:41.990Z,79.60
2018-09-15T07:04:13.258Z,79.90
2018-09-15T07:06:43.236Z,80.10
2018-09-15T07:09:14.250Z,79.80
2018-09-15T07:11:44.105Z,79.50
2018-09-15T07:14:13.958Z,79.40
2018-09-15T07:16:43.978Z,79.20
2018-09-15T07:19:13.959Z,79.10
2018-09-15T07:21:44.007Z,79.30
2018-09-15T07:24:13.938Z,79.30
2018-09-15T07:26:43.924Z,78.80
2018-09-15T07:29:13.634Z,78.20
2018-09-15T07:31:43.585Z,77.90
2018-09-15T07:34:13.328Z,77.70
2018-09-15T07:36:43.316Z,77.50
2018-09-15T07:39:13.279Z,77.40
2018-09-15T07:41:43.095Z,77.40
2018-09-15T07:44:13.223Z,77.20
2018-09-15T07:46:43.110Z,77.00
2018-09-15T07:49:13.035Z,77.00
2018-09-15T07:51:42.963Z,77.20
2018-09-15T07:54:12.850Z,77.10
2018-09-15T07:56:42.867Z,77.40
2018-09-15T07:59:12.887Z,77.20
2018-09-15T08:01:42.806Z,77.30
2018-09-15T08:04:12.689Z,77.60
2018-09-15T08:06:42.490Z,77.70
2018-09-15T08:09:12.378Z,78.20
2018-09-15T08:11:42.197Z,78.30
2018-09-15T08:14:12.046Z,78.10
2018-09-15T08:16:41.958Z,77.80
2018-09-15T08:19:11.759Z,77.50
2018-09-15T08:21:41.684Z,77.00
2018-09-15T08:24:11.597Z,74.80
2018-09-15T08:26:41.556Z,74.40
2018-09-15T08:29:11.396Z,73.50
2018-09-15T08:31:41.261Z,72.50
2018-09-15T08:34:11.198Z,72.00
2018-09-15T08:36:41.143Z,71.40
2018-09-15T08:39:11.263Z,71.60
2018-09-15T08:41:41.286Z,70.20
2018-09-15T08:44:11.314Z,69.40
2018-09-15T08:46:41.227Z,69.50
2018-09-15T08:49:11.072Z,68.70
2018-09-15T08:51:41.011Z,67.00
2018-09-15T08:54:10.981Z,65.70
2018-09-15T08:56:40.773Z,64.60
2018-09-15T08:59:10.669Z,64.60
2018-09-15T09:01:40.606Z,63.60
2018-09-15T09:04:10.430Z,63.90
2018-09-15T09:06:40.298Z,62.00
2018-09-15T09:09:12.273Z,61.90
2018-09-15T09:11:42.293Z,60.80
2018-09-15T09:14:12.123Z,61.20
2018-09-15T09:16:42.078Z,58.40
2018-09-15T09:19:11.881Z,58.60
2018-09-15T09:21:41.751Z,58.90
2018-09-15T09:24:11.819Z,58.20
2018-09-15T09:26:41.686Z,57.10
2018-09-15T09:29:11.539Z,56.90
2018-09-15T09:31:41.483Z,57.70
2018-09-15T09:34:11.278Z,57.80
2018-09-15T09:36:41.211Z,58.40
2018-09-15T09:39:12.865Z,58.00
2018-09-15T09:41:43.755Z,58.50
2018-09-15T09:44:13.591Z,58.50
2018-09-15T09:46:43.463Z,57.40
2018-09-15T09:49:13.290Z,56.70
2018-09-15T09:51:43.174Z,56.40
2018-09-15T09:54:13.077Z,55.40
2018-09-15T09:56:43.047Z,54.70
2018-09-15T09:59:12.885Z,54.70
2018-09-15T10:01:47.962Z,53.80
2018-09-15T10:04:17.882Z,53.60
2018-09-15T10:06:47.729Z,54.10
2018-09-15T10:09:17.537Z,54.30
2018-09-15T10:11:47.473Z,54.80
2018-09-15T10:17:03.880Z,54.50
2018-09-15T10:19:34.878Z,55.00
2018-09-15T10:22:04.974Z,55.20
2018-09-15T10:24:35.098Z,55.50
2018-09-15T10:27:05.130Z,55.40
2018-09-15T10:29:34.966Z,55.00
2018-09-15T10:32:04.944Z,54.00
2018-09-15T10:34:34.832Z,53.50
2018-09-15T10:37:04.809Z,53.50
2018-09-15T10:39:34.672Z,52.80
2018-09-15T10:42:04.597Z,52.90
2018-09-15T10:44:34.582Z,52.50
2018-09-15T10:47:04.434Z,51.80
2018-09-15T10:49:34.421Z,51.30
2018-09-15T10:52:04.340Z,49.70
2018-09-15T10:54:34.561Z,48.20
2018-09-15T10:57:04.596Z,48.00
2018-09-15T10:59:34.400Z,47.60
2018-09-15T11:02:04.511Z,46.50
2018-09-15T11:04:34.443Z,45.60
2018-09-15T11:07:04.379Z,45.10
2018-09-15T11:09:34.264Z,45.60
2018-09-15T11:12:04.112Z,45.70
2018-09-15T11:14:34.197Z,45.60
2018-09-15T11:17:03.975Z,45.90
2018-09-15T11:19:33.897Z,45.40
2018-09-15T11:22:04.166Z,44.00
2018-09-15T11:24:34.285Z,44.50
2018-09-15T11:27:04.791Z,44.50
2018-09-15T11:29:34.630Z,43.60
2018-09-15T11:32:04.503Z,43.00
2018-09-15T11:34:34.321Z,43.50
2018-09-15T11:37:04.184Z,43.80
2018-09-15T11:39:34.051Z,44.10
2018-09-15T11:42:03.869Z,43.60
2018-09-15T11:44:33.808Z,43.20
2018-09-15T11:47:03.621Z,42.50
2018-09-15T11:49:33.524Z,41.50
2018-09-15T11:52:03.397Z,41.70
2018-09-15T11:54:33.363Z,40.20
2018-09-15T11:57:03.334Z,39.50
2018-09-15T11:59:33.203Z,39.10
2018-09-15T12:02:03.326Z,39.30
2018-09-15T12:04:33.101Z,39.30
2018-09-15T12:07:03.012Z,39.00
2018-09-15T12:09:33.054Z,39.60
2018-09-15T12:12:02.895Z,40.80
2018-09-15T12:14:32.872Z,41.80
2018-09-15T12:17:02.754Z,41.20
2018-09-15T12:19:32.654Z,41.50
2018-09-15T12:22:02.758Z,42.00
2018-09-15T12:24:32.721Z,42.50
2018-09-15T12:27:02.666Z,42.80
2018-09-15T12:29:32.562Z,43.50
2018-09-15T12:32:02.475Z,44.60
2018-09-15T12:34:32.446Z,44.60
2018-09-15T12:37:02.361Z,45.00
2018-09-15T12:39:32.338Z,45.40
2018-09-15T12:42:02.182Z,46.20
2018-09-15T12:44:33.062Z,46.40
2018-09-15T12:47:03.002Z,46.40
2018-09-15T12:49:32.876Z,46.70
2018-09-15T12:52:02.787Z,46.70
2018-09-15T12:54:32.725Z,46.50
2018-09-15T12:57:02.762Z,46.30
2018-09-15T12:59:32.676Z,46.80
2018-09-15T13:02:02.562Z,46.10
2018-09-15T13:04:32.641Z,46.60
2018-09-15T13:07:02.391Z,46.80
2018-09-15T13:09:32.246Z,46.50
2018-09-15T13:12:02.103Z,46.70
2018-09-15T13:14:32.117Z,46.80
2018-09-15T13:17:02.174Z,47.00
2018-09-15T13:19:32.048Z,46.50
2018-09-15T13:22:01.845Z,46.70
2018-09-15T13:24:31.616Z,46.70
2018-09-15T13:27:01.514Z,46.60
2018-09-15T13:29:31.540Z,46.50
2018-09-15T13:32:01.510Z,46.80
2018-09-15T13:34:31.436Z,46.70
2018-09-15T13:37:01.311Z,46.90
2018-09-15T13:39:31.176Z,47.50
2018-09-15T13:42:01.057Z,47.60
2018-09-15T13:44:31.064Z,47.60
2018-09-15T13:47:00.977Z,47.50
2018-09-15T13:49:30.915Z,47.60
2018-09-15T13:52:00.800Z,47.70
2018-09-15T13:54:30.803Z,47.70
2018-09-15T13:57:00.691Z,47.80
2018-09-15T13:59:30.607Z,47.60
2018-09-15T14:02:00.468Z,48.00
2018-09-15T14:04:30.285Z,48.00
2018-09-15T14:07:00.204Z,47.70
2018-09-15T14:09:30.158Z,48.10
2018-09-15T14:12:00.103Z,47.80
2018-09-15T14:14:29.999Z,48.20
2018-09-15T14:16:59.883Z,48.30
2018-09-15T14:19:29.850Z,48.40
2018-09-15T14:21:59.732Z,48.60
2018-09-15T14:24:29.572Z,48.90
2018-09-15T14:26:59.442Z,49.20
2018-09-15T14:29:29.375Z,49.40
2018-09-15T14:31:59.267Z,49.60
2018-09-15T14:34:29.209Z,49.70
2018-09-15T14:36:59.204Z,49.90
2018-09-15T14:39:29.294Z,50.00
2018-09-15T14:41:59.342Z,50.00
2018-09-15T14:44:29.278Z,50.10
2018-09-15T14:46:59.182Z,50.00
2018-09-15T14:49:29.064Z,50.10
2018-09-15T14:51:58.959Z,50.30
2018-09-15T14:54:28.820Z,50.30
2018-09-15T14:56:58.762Z,50.50
2018-09-15T14:59:28.622Z,50.10
2018-09-15T15:01:58.501Z,50.10
2018-09-15T15:04:28.295Z,50.40
2018-09-15T15:06:58.800Z,50.20
2018-09-15T15:09:29.358Z,50.10
2018-09-15T15:12:00.003Z,49.80
2018-09-15T15:14:31.739Z,49.60
2018-09-15T15:17:02.136Z,49.60
2018-09-15T15:19:32.063Z,49.80
2018-09-15T15:22:01.879Z,49.20
2018-09-15T15:24:31.843Z,49.30
2018-09-15T15:27:01.786Z,48.70
2018-09-15T15:29:31.692Z,48.40
2018-09-15T15:32:01.828Z,48.00
2018-09-15T15:34:31.765Z,47.70
2018-09-15T15:37:01.751Z,46.60
2018-09-15T15:39:31.840Z,46.80
2018-09-15T15:42:01.828Z,46.10
2018-09-15T15:44:31.698Z,45.60
2018-09-15T15:47:01.615Z,46.10
2018-09-15T15:49:31.652Z,45.70
2018-09-15T15:52:01.579Z,45.70
2018-09-15T15:54:31.641Z,46.10
2018-09-15T15:57:01.747Z,45.50
2018-09-15T15:59:31.513Z,45.50
2018-09-15T16:02:01.412Z,45.40
2018-09-15T16:04:31.407Z,45.10
2018-09-15T16:07:01.202Z,45.40
2018-09-15T16:09:31.047Z,45.60
2018-09-15T16:12:00.897Z,45.40
2018-09-15T16:14:30.886Z,45.20
2018-09-15T16:17:00.868Z,45.20
2018-09-15T16:19:30.683Z,44.90
2018-09-15T16:22:00.607Z,45.10
2018-09-15T16:24:30.623Z,45.10
2018-09-15T16:27:00.590Z,45.10
2018-09-15T16:29:30.422Z,44.90
2018-09-15T16:32:00.319Z,45.20
2018-09-15T16:34:30.185Z,45.50
2018-09-15T16:37:00.118Z,45.80
2018-09-15T16:39:30.191Z,46.00
2018-09-15T16:42:00.199Z,46.20
2018-09-15T16:44:30.233Z,46.40
2018-09-15T16:47:00.151Z,46.70
2018-09-15T16:49:30.027Z,47.00
2018-09-15T16:51:59.967Z,47.40
2018-09-15T16:54:29.850Z,47.50
2018-09-15T16:56:59.735Z,47.80
2018-09-15T16:59:29.642Z,48.10
2018-09-15T17:02:00.561Z,48.40
2018-09-15T17:04:30.515Z,48.90
2018-09-15T17:07:00.610Z,49.10
2018-09-15T17:09:30.647Z,49.40
2018-09-15T17:12:00.643Z,49.60
2018-09-15T17:14:30.733Z,49.80
2018-09-15T17:17:00.679Z,50.00
2018-09-15T17:19:30.522Z,50.20
2018-09-15T17:22:00.526Z,50.30
2018-09-15T17:24:30.424Z,50.40
2018-09-15T17:27:00.475Z,50.80
2018-09-15T17:29:30.395Z,50.80
2018-09-15T17:32:00.320Z,51.10
2018-09-15T17:34:30.290Z,51.20
2018-09-15T17:37:00.244Z,51.20
2018-09-15T17:39:30.013Z,51.40
2018-09-15T17:42:00.004Z,52.20
2018-09-15T17:44:30.149Z,51.90
2018-09-15T17:47:00.063Z,52.30
2018-09-15T17:49:29.946Z,52.30
2018-09-15T17:51:59.780Z,52.50
2018-09-15T17:54:29.755Z,53.00
2018-09-15T17:56:59.597Z,53.20
2018-09-15T17:59:29.632Z,53.20
2018-09-15T18:01:59.572Z,53.40
2018-09-15T18:04:29.834Z,53.00
2018-09-15T18:06:59.706Z,53.50
2018-09-15T18:09:29.639Z,53.70
2018-09-15T18:11:59.416Z,54.00
2018-09-15T18:14:29.215Z,54.10
2018-09-15T18:16:59.153Z,54.10
2018-09-15T18:19:29.086Z,54.30
2018-09-15T18:21:59.131Z,54.50
2018-09-15T18:24:29.028Z,54.80
2018-09-15T18:26:58.995Z,55.20
2018-09-15T18:29:30.857Z,55.40
2018-09-15T18:32:01.378Z,55.60
2018-09-15T18:34:32.488Z,55.90
2018-09-15T18:37:03.278Z,56.20
2018-09-15T18:39:34.286Z,56.20
2018-09-15T18:42:05.146Z,56.90
2018-09-15T18:44:36.171Z,56.80
2018-09-15T18:47:07.379Z,57.10
2018-09-15T18:49:38.878Z,57.40
2018-09-15T18:52:11.238Z,57.50
2018-09-15T18:54:41.769Z,58.20
2018-09-15T18:57:12.203Z,57.80
2018-09-15T18:59:42.255Z,57.90
2018-09-15T19:02:12.247Z,58.20
2018-09-15T19:04:42.165Z,58.50
2018-09-15T19:07:12.827Z,58.80
2018-09-15T19:09:42.862Z,58.90
2018-09-15T19:12:12.739Z,59.20
2018-09-15T19:14:42.725Z,59.20
2018-09-15T19:17:12.485Z,59.70
2018-09-15T19:19:42.327Z,59.90
2018-09-15T19:22:12.246Z,60.20
2018-09-15T19:24:42.080Z,60.20
2018-09-15T19:27:11.872Z,60.40
2018-09-15T19:29:41.742Z,60.80
2018-09-15T19:32:11.618Z,61.40
2018-09-15T19:34:41.566Z,62.00
2018-09-15T19:37:11.511Z,62.30
2018-09-15T19:39:42.534Z,62.40
2018-09-15T19:42:13.616Z,62.50
2018-09-15T19:44:45.353Z,62.80
2018-09-15T19:47:16.491Z,62.50
2018-09-15T19:49:47.403Z,62.70
2018-09-15T19:52:18.061Z,62.70
2018-09-15T19:54:49.300Z,62.60
2018-09-15T19:57:21.023Z,63.00
2018-09-15T19:59:52.258Z,63.00
2018-09-15T20:02:23.014Z,63.30
2018-09-15T20:04:53.721Z,63.80
2018-09-15T20:07:25.778Z,63.90
2018-09-15T20:09:57.777Z,64.20
2018-09-15T20:12:30.299Z,64.40
2018-09-15T20:15:01.363Z,64.60
2018-09-15T20:17:29.705Z,64.60
2018-09-15T20:19:57.988Z,64.70
2018-09-15T20:22:28.963Z,64.80
2018-09-15T20:24:59.681Z,65.20
2018-09-15T20:27:31.352Z,65.20
2018-09-15T20:30:03.330Z,65.50
2018-09-15T20:32:35.065Z,66.00
2018-09-15T20:35:06.465Z,66.50
2018-09-15T20:37:39.324Z,66.50
2018-09-15T20:40:11.104Z,66.40
2018-09-15T20:42:41.961Z,66.40
2018-09-15T20:45:12.730Z,66.40
2018-09-15T20:47:43.559Z,66.50
2018-09-15T20:50:15.251Z,66.70
2018-09-15T20:52:45.748Z,66.80
2018-09-15T20:55:15.593Z,67.00
2018-09-15T20:57:45.515Z,67.10
2018-09-15T21:00:15.367Z,67.50
2018-09-15T21:02:45.201Z,67.50
2018-09-15T21:05:15.114Z,67.60
2018-09-15T21:07:45.051Z,67.70
2018-09-15T21:10:14.988Z,68.20
2018-09-15T21:12:44.953Z,68.40
2018-09-15T21:15:15.178Z,68.50
2018-09-15T21:17:45.406Z,68.50
2018-09-15T21:20:15.842Z,68.50
2018-09-15T21:22:46.008Z,68.60
2018-09-15T21:25:16.410Z,68.90
2018-09-15T21:27:47.140Z,68.60
2018-09-15T21:30:17.556Z,68.80
2018-09-15T21:32:48.057Z,68.90
2018-09-15T21:35:18.503Z,69.20
2018-09-15T21:37:48.869Z,69.40
2018-09-15T21:40:19.065Z,69.60
2018-09-15T21:42:49.515Z,69.40
2018-09-15T21:45:19.991Z,70.00
2018-09-15T21:47:50.460Z,70.30
2018-09-15T21:50:20.762Z,70.30
2018-09-15T21:52:51.165Z,70.10
2018-09-15T21:55:21.732Z,70.10
2018-09-15T21:57:52.078Z,70.20
2018-09-15T22:00:22.391Z,70.10
2018-09-15T22:02:52.607Z,70.30
2018-09-15T22:05:23.002Z,71.30
2018-09-15T22:07:52.883Z,70.40
2018-09-15T22:10:22.745Z,70.60
2018-09-15T22:12:53.234Z,70.60
2018-09-15T22:15:26.835Z,70.80
2018-09-15T22:17:58.749Z,70.90
2018-09-15T22:20:29.038Z,71.20
2018-09-15T22:22:59.396Z,71.60
2018-09-15T22:25:29.738Z,71.70
2018-09-15T22:28:00.014Z,71.70
2018-09-15T22:30:30.239Z,71.90
2018-09-15T22:33:00.450Z,72.10
2018-09-15T22:35:32.213Z,72.60
2018-09-15T22:38:02.564Z,72.90
2018-09-15T22:40:32.772Z,73.00
2018-09-15T22:43:03.211Z,72.60
2018-09-15T22:45:33.542Z,72.60
2018-09-15T22:48:04.058Z,72.90
2018-09-15T22:50:34.404Z,72.80
2018-09-15T22:53:05.015Z,72.90
2018-09-15T22:55:35.591Z,72.70
2018-09-15T22:58:06.309Z,72.70
2018-09-15T23:00:36.942Z,72.80
2018-09-15T23:03:07.671Z,72.90
2018-09-15T23:05:38.267Z,72.80
2018-09-15T23:08:08.915Z,72.70
2018-09-15T23:10:39.323Z,72.60
2018-09-15T23:13:09.803Z,73.20
2018-09-15T23:15:40.287Z,73.30
2018-09-15T23:18:10.755Z,73.70
2018-09-15T23:20:41.365Z,74.00
2018-09-15T23:23:12.019Z,74.00
2018-09-15T23:25:42.901Z,74.20
2018-09-15T23:28:12.839Z,74.20
2018-09-15T23:30:42.703Z,74.20
2018-09-15T23:33:12.638Z,74.40
2018-09-15T23:35:42.515Z,74.90
2018-09-15T23:38:12.415Z,75.10
2018-09-15T23:40:42.262Z,75.50
2018-09-15T23:43:12.087Z,75.70
2018-09-15T23:45:41.894Z,75.80
2018-09-15T23:48:11.774Z,76.10
2018-09-15T23:50:41.626Z,76.40
2018-09-15T23:53:11.513Z,76.30
2018-09-15T23:55:41.369Z,76.20
2018-09-15T23:58:11.155Z,76.30
